ADDS METAR Data INFO
IDs: Format: Raw Decoded Include TAF

Data at: 0731 UTC 16 Jan 2018

METAR for:KPEZ (Pleasanton Muni, TX, US)
Text:KPEZ 160715Z AUTO 03019G28KT 10SM -RA SCT013 OVC024 07/04 A3042 RMK AO2 T00690040
Temperature: 6.9°C ( 44°F)
Dewpoint: 4.0°C ( 39°F) [RH = 82%]
Pressure (altimeter):30.42 inches Hg (1030.2 mb)
Winds:from the NNE (30 degrees) at 22 MPH (19 knots; 9.8 m/s) gusting to 32 MPH (28 knots; 14.4 m/s)
Visibility:10 or more sm (16+ km)
Ceiling:2400 feet AGL
Clouds: scattered clouds at 1300 feet AGL, overcast cloud deck at 2400 feet AGL
Weather:-RA (light rain)
QC Flag:automated observation with no human augmentation